createdAt,value
2023-01-19T00:00:30.099Z,1.40
2023-01-19T00:02:56.744Z,1.48
2023-01-19T00:05:23.298Z,1.55
2023-01-19T00:10:34.169Z,1.63
2023-01-19T00:13:01.144Z,1.65
2023-01-19T00:15:29.184Z,1.69
2023-01-19T00:17:55.779Z,1.73
2023-01-19T00:20:22.354Z,1.76
2023-01-19T00:22:51.005Z,1.78
2023-01-19T00:25:17.764Z,1.77
2023-01-19T00:27:49.374Z,1.79
2023-01-19T00:30:16.486Z,1.86
2023-01-19T00:32:43.052Z,1.90
2023-01-19T00:35:09.660Z,1.95
2023-01-19T00:37:36.192Z,1.97
2023-01-19T00:40:02.781Z,1.99
2023-01-19T00:42:41.069Z,2.02
2023-01-19T00:45:10.068Z,2.02
2023-01-19T00:47:36.739Z,2.00
2023-01-19T00:50:03.557Z,2.01
2023-01-19T00:52:30.137Z,2.02
2023-01-19T00:54:56.693Z,2.02
2023-01-19T00:57:23.575Z,2.02
2023-01-19T00:59:50.326Z,2.04
2023-01-19T01:02:17.260Z,2.05
2023-01-19T01:04:43.922Z,2.03
2023-01-19T01:07:10.600Z,2.05
2023-01-19T01:09:38.170Z,2.06
2023-01-19T01:12:05.872Z,2.09
2023-01-19T01:14:32.859Z,2.11
2023-01-19T01:17:00.677Z,2.13
2023-01-19T01:19:27.468Z,2.15
2023-01-19T01:21:54.164Z,2.15
2023-01-19T01:24:20.843Z,2.16
2023-01-19T01:26:47.509Z,2.16
2023-01-19T01:29:14.108Z,2.16
2023-01-19T01:31:41.010Z,2.16
2023-01-19T01:34:08.277Z,2.18
2023-01-19T01:36:35.591Z,2.17
2023-01-19T01:39:02.506Z,2.18
2023-01-19T01:41:29.143Z,2.22
2023-01-19T01:44:02.055Z,2.22
2023-01-19T01:46:31.171Z,2.22
2023-01-19T01:49:08.645Z,2.21
2023-01-19T01:51:42.297Z,2.22
2023-01-19T01:54:19.000Z,2.24
2023-01-19T01:56:49.321Z,2.29
2023-01-19T01:59:29.604Z,2.32
2023-01-19T02:02:18.192Z,2.33
2023-01-19T02:04:56.157Z,2.31
2023-01-19T02:07:52.107Z,2.32
2023-01-19T02:10:37.482Z,2.32
2023-01-19T02:13:22.568Z,2.33
2023-01-19T02:15:52.679Z,2.35
2023-01-19T02:18:24.460Z,2.34
2023-01-19T02:21:00.336Z,2.35
2023-01-19T02:23:55.331Z,2.30
2023-01-19T02:26:36.416Z,2.27
2023-01-19T02:29:08.752Z,2.29
2023-01-19T02:31:39.045Z,2.28
2023-01-19T02:34:08.445Z,2.30
2023-01-19T02:36:39.915Z,2.27
2023-01-19T02:39:09.750Z,2.26
2023-01-19T02:41:42.725Z,2.26
2023-01-19T02:44:11.085Z,2.27
2023-01-19T02:46:38.548Z,2.33
2023-01-19T02:49:05.250Z,2.38
2023-01-19T02:51:32.300Z,2.39
2023-01-19T02:54:04.687Z,2.38
2023-01-19T02:56:34.848Z,2.40
2023-01-19T02:59:25.855Z,2.42
2023-01-19T03:02:08.968Z,2.42
2023-01-19T03:04:57.515Z,2.40
2023-01-19T03:08:01.445Z,2.39
2023-01-19T03:10:31.033Z,2.41
2023-01-19T03:13:13.816Z,2.42
2023-01-19T03:16:23.785Z,2.45
2023-01-19T03:19:08.874Z,2.48
2023-01-19T03:21:39.305Z,2.51
2023-01-19T03:24:08.524Z,2.54
2023-01-19T03:26:43.124Z,2.50
2023-01-19T03:29:13.613Z,2.46
2023-01-19T03:31:43.390Z,2.44
2023-01-19T03:34:13.703Z,2.42
2023-01-19T03:36:51.652Z,2.39
2023-01-19T03:39:22.692Z,2.43
2023-01-19T03:41:53.854Z,2.45
2023-01-19T03:44:20.439Z,2.48
2023-01-19T03:46:48.111Z,2.50
2023-01-19T03:49:14.813Z,2.53
2023-01-19T03:51:41.524Z,2.55
2023-01-19T03:54:10.355Z,2.56
2023-01-19T03:56:37.285Z,2.59
2023-01-19T03:59:05.674Z,2.60
2023-01-19T04:01:32.787Z,2.62
2023-01-19T04:03:59.431Z,2.61
2023-01-19T04:06:27.083Z,2.62
2023-01-19T04:08:53.945Z,2.65
2023-01-19T04:11:20.881Z,2.64
2023-01-19T04:13:47.941Z,2.65
2023-01-19T04:16:19.898Z,2.64
2023-01-19T04:18:47.415Z,2.64
2023-01-19T04:21:14.573Z,2.68
2023-01-19T04:23:41.168Z,2.69
2023-01-19T04:26:09.222Z,2.66
2023-01-19T04:28:37.254Z,2.66
2023-01-19T04:31:07.895Z,2.68
2023-01-19T04:33:35.099Z,2.63
2023-01-19T04:36:02.260Z,2.61
2023-01-19T04:38:28.851Z,2.57
2023-01-19T04:40:55.475Z,2.53
2023-01-19T04:43:23.361Z,2.53
2023-01-19T04:45:50.882Z,2.49
2023-01-19T04:48:18.594Z,2.49
2023-01-19T04:50:45.281Z,2.46
2023-01-19T04:53:13.865Z,2.47
2023-01-19T04:55:40.739Z,2.48
2023-01-19T04:58:07.359Z,2.52
2023-01-19T05:00:34.114Z,2.57
2023-01-19T05:03:01.610Z,2.54
2023-01-19T05:05:28.688Z,2.51
2023-01-19T05:07:55.570Z,2.48
2023-01-19T05:10:22.311Z,2.47
2023-01-19T05:12:48.933Z,2.45
2023-01-19T05:15:15.508Z,2.42
2023-01-19T05:17:42.066Z,2.38
2023-01-19T05:20:12.533Z,2.37
2023-01-19T05:22:40.005Z,2.34
2023-01-19T05:25:08.816Z,2.37
2023-01-19T05:27:36.643Z,2.43
2023-01-19T05:30:05.096Z,2.45
2023-01-19T05:32:31.660Z,2.48
2023-01-19T05:34:58.309Z,2.50
2023-01-19T05:37:25.049Z,2.52
2023-01-19T05:39:51.861Z,2.53
2023-01-19T05:42:18.401Z,2.58
2023-01-19T05:44:44.972Z,2.62
2023-01-19T05:47:11.824Z,2.62
2023-01-19T05:49:38.414Z,2.65
2023-01-19T05:52:04.995Z,2.68
2023-01-19T05:54:31.583Z,2.81
2023-01-19T05:56:58.324Z,3.31
2023-01-19T05:59:24.995Z,4.12
2023-01-19T06:01:52.489Z,4.96
2023-01-19T06:04:20.166Z,5.80
2023-01-19T06:06:50.388Z,5.66
2023-01-19T06:09:17.794Z,5.07
2023-01-19T06:11:45.309Z,4.59
2023-01-19T06:14:12.230Z,4.18
2023-01-19T06:16:39.106Z,3.83
2023-01-19T06:19:06.096Z,3.70
2023-01-19T06:21:34.364Z,3.64
2023-01-19T06:24:01.085Z,3.57
2023-01-19T06:26:27.693Z,3.48
2023-01-19T06:28:55.239Z,3.40
2023-01-19T06:31:22.016Z,3.30
2023-01-19T06:33:48.700Z,3.25
2023-01-19T06:36:15.306Z,3.25
2023-01-19T06:38:41.998Z,3.20
2023-01-19T06:41:08.603Z,3.16
2023-01-19T06:43:35.314Z,3.16
2023-01-19T06:46:02.307Z,3.16
2023-01-19T06:48:28.928Z,3.13
2023-01-19T06:50:57.806Z,3.11
2023-01-19T06:53:27.926Z,3.10
2023-01-19T06:55:59.296Z,3.08
2023-01-19T06:58:26.143Z,3.03
2023-01-19T07:00:52.935Z,3.01
2023-01-19T07:03:22.111Z,2.99
2023-01-19T07:05:56.853Z,3.01
2023-01-19T07:08:24.206Z,2.99
2023-01-19T07:11:25.492Z,3.02
2023-01-19T07:13:38.576Z,3.03
2023-01-19T07:16:08.320Z,3.03
2023-01-19T07:18:35.713Z,3.03
2023-01-19T07:21:02.425Z,3.03
2023-01-19T07:23:31.820Z,3.01
2023-01-19T07:26:00.953Z,3.02
2023-01-19T07:28:31.711Z,3.04
2023-01-19T07:30:58.517Z,3.02
2023-01-19T07:33:26.245Z,3.03
2023-01-19T07:35:53.565Z,3.06
2023-01-19T07:38:20.656Z,3.07
2023-01-19T07:40:47.406Z,3.06
2023-01-19T07:43:14.651Z,3.07
2023-01-19T07:45:41.341Z,3.09
2023-01-19T07:48:07.943Z,3.12
2023-01-19T07:50:34.601Z,3.14
2023-01-19T07:53:08.870Z,3.14
2023-01-19T07:55:35.850Z,3.16
2023-01-19T07:58:06.515Z,3.13
2023-01-19T08:00:34.407Z,3.09
2023-01-19T08:03:03.375Z,3.09
2023-01-19T08:05:30.553Z,3.09
2023-01-19T08:07:58.168Z,3.10
2023-01-19T08:10:26.813Z,3.13
2023-01-19T08:14:02.148Z,3.11
2023-01-19T08:16:29.003Z,3.13
2023-01-19T08:18:55.560Z,3.18
2023-01-19T08:21:22.241Z,3.24
2023-01-19T08:23:55.931Z,3.28
2023-01-19T08:26:29.670Z,3.28
2023-01-19T08:28:59.058Z,3.30
2023-01-19T08:31:26.458Z,3.35
2023-01-19T08:33:53.209Z,3.38
2023-01-19T08:36:21.385Z,3.40
2023-01-19T08:38:48.573Z,3.41
2023-01-19T08:41:17.079Z,3.38
2023-01-19T08:43:45.496Z,3.37
2023-01-19T08:46:12.701Z,3.34
2023-01-19T08:48:40.075Z,3.33
2023-01-19T08:51:06.798Z,3.33
2023-01-19T08:53:34.186Z,3.26
2023-01-19T08:56:02.072Z,3.25
2023-01-19T08:58:29.139Z,3.27
2023-01-19T09:00:56.313Z,3.33
2023-01-19T09:03:23.190Z,3.40
2023-01-19T09:05:50.441Z,3.43
2023-01-19T09:08:17.457Z,3.47
2023-01-19T09:10:47.007Z,3.51
2023-01-19T09:13:14.516Z,3.54
2023-01-19T09:15:43.287Z,3.58
2023-01-19T09:18:16.692Z,3.65
2023-01-19T09:20:45.357Z,3.65
2023-01-19T09:23:13.863Z,3.64
2023-01-19T09:25:42.011Z,3.66
2023-01-19T09:28:10.938Z,3.66
2023-01-19T09:30:39.447Z,3.64
2023-01-19T09:33:08.149Z,3.61
2023-01-19T09:35:35.202Z,3.62
2023-01-19T09:38:02.152Z,3.58
2023-01-19T09:40:29.335Z,3.61
2023-01-19T09:43:11.868Z,3.67
2023-01-19T09:45:48.178Z,3.72
2023-01-19T09:48:52.369Z,3.70
2023-01-19T09:51:23.290Z,3.78
2023-01-19T09:53:56.481Z,3.81
2023-01-19T09:56:24.166Z,3.87
2023-01-19T09:58:51.638Z,3.85
2023-01-19T10:01:52.630Z,3.79
2023-01-19T10:04:32.073Z,3.81
2023-01-19T10:07:23.513Z,3.82
2023-01-19T10:09:59.045Z,3.89
2023-01-19T10:12:37.860Z,3.90
2023-01-19T10:15:16.527Z,3.90
2023-01-19T10:18:17.646Z,3.90
2023-01-19T10:20:50.127Z,3.92
2023-01-19T10:23:37.266Z,3.93
2023-01-19T10:26:12.825Z,3.93
2023-01-19T10:28:40.803Z,3.95
2023-01-19T10:31:09.877Z,3.96
2023-01-19T10:33:37.099Z,3.99
2023-01-19T10:36:17.491Z,4.01
2023-01-19T10:38:44.358Z,4.04
2023-01-19T10:41:39.398Z,4.05
2023-01-19T10:44:07.585Z,4.03
2023-01-19T10:46:37.396Z,4.01
2023-01-19T10:49:04.952Z,3.99
2023-01-19T10:51:31.596Z,3.98
2023-01-19T10:54:01.908Z,3.99
2023-01-19T10:56:35.533Z,4.00
2023-01-19T10:59:05.168Z,4.01
2023-01-19T11:01:36.014Z,3.97
2023-01-19T11:04:21.803Z,3.97
2023-01-19T11:06:48.405Z,4.05
2023-01-19T11:09:20.985Z,4.09
2023-01-19T11:11:52.926Z,4.13
2023-01-19T11:14:23.334Z,4.09
2023-01-19T11:16:58.137Z,4.10
2023-01-19T11:19:32.458Z,4.06
2023-01-19T11:22:16.763Z,4.05
2023-01-19T11:24:44.230Z,4.11
2023-01-19T11:27:10.830Z,4.10
2023-01-19T11:29:38.983Z,4.06
2023-01-19T11:32:22.070Z,4.01
2023-01-19T11:34:49.585Z,4.00
2023-01-19T11:37:16.107Z,3.98
2023-01-19T11:39:49.327Z,3.93
2023-01-19T11:42:17.577Z,3.89
2023-01-19T11:45:23.309Z,3.85
2023-01-19T11:47:51.809Z,3.87
2023-01-19T11:50:29.744Z,3.98
2023-01-19T11:53:24.258Z,4.04
2023-01-19T11:56:02.932Z,4.12
2023-01-19T11:58:31.534Z,4.17
2023-01-19T12:01:01.835Z,4.17
2023-01-19T12:03:54.599Z,4.19
2023-01-19T12:06:47.841Z,4.15
2023-01-19T12:09:22.494Z,4.11
2023-01-19T12:12:05.092Z,4.08
2023-01-19T12:14:35.137Z,4.11
2023-01-19T12:17:05.785Z,4.09
2023-01-19T12:19:55.027Z,4.10
2023-01-19T12:22:24.025Z,4.16
2023-01-19T12:25:02.988Z,4.18
2023-01-19T12:27:44.363Z,4.22
2023-01-19T12:30:23.789Z,4.27
2023-01-19T12:32:53.857Z,4.29
2023-01-19T12:35:54.699Z,4.23
2023-01-19T12:38:30.075Z,4.15
2023-01-19T12:41:16.665Z,3.99
2023-01-19T12:43:43.426Z,3.96
2023-01-19T12:46:31.053Z,3.93
2023-01-19T12:49:19.741Z,4.02
2023-01-19T12:51:46.884Z,4.05
2023-01-19T12:54:32.698Z,4.04
2023-01-19T12:57:06.410Z,4.04
2023-01-19T12:59:35.418Z,4.01
2023-01-19T13:02:20.026Z,3.98
2023-01-19T13:05:28.535Z,3.96
2023-01-19T13:08:08.386Z,3.99
2023-01-19T13:10:59.372Z,3.92
2023-01-19T13:13:29.050Z,3.94
2023-01-19T13:15:57.956Z,3.93
2023-01-19T13:18:27.611Z,3.89
2023-01-19T13:21:12.567Z,3.83
2023-01-19T13:23:51.136Z,3.83
2023-01-19T13:26:20.884Z,3.82
2023-01-19T13:28:52.341Z,3.80
2023-01-19T13:31:19.897Z,3.81
2023-01-19T13:33:50.969Z,3.80
2023-01-19T13:36:38.420Z,3.72
2023-01-19T13:39:12.329Z,3.73
2023-01-19T13:41:41.224Z,3.78
2023-01-19T13:44:15.465Z,3.78
2023-01-19T13:46:42.933Z,3.84
2023-01-19T13:49:19.137Z,3.87
2023-01-19T13:51:45.730Z,3.94
2023-01-19T13:54:17.762Z,3.95
2023-01-19T13:56:50.360Z,3.96
2023-01-19T13:59:16.976Z,3.99
2023-01-19T14:01:46.033Z,3.97
2023-01-19T14:04:32.449Z,3.92
2023-01-19T14:07:02.913Z,3.85
2023-01-19T14:09:29.568Z,3.86
2023-01-19T14:12:11.084Z,3.87
2023-01-19T14:14:38.580Z,3.94
2023-01-19T14:17:18.192Z,3.96
2023-01-19T14:19:53.228Z,3.96
2023-01-19T14:22:19.970Z,3.94
2023-01-19T14:24:46.887Z,3.93
2023-01-19T14:27:22.697Z,3.95
2023-01-19T14:29:53.567Z,3.96
2023-01-19T14:32:25.448Z,3.97
2023-01-19T14:35:13.185Z,3.96
2023-01-19T14:37:50.915Z,3.96
2023-01-19T14:40:20.433Z,4.02
2023-01-19T14:43:03.169Z,4.02
2023-01-19T14:45:36.983Z,4.06
2023-01-19T14:48:07.021Z,4.03
2023-01-19T14:50:42.838Z,4.04
2023-01-19T14:53:25.733Z,4.03
2023-01-19T14:56:02.403Z,3.97
2023-01-19T14:58:31.410Z,3.95
2023-01-19T15:00:58.519Z,3.96
2023-01-19T15:03:38.569Z,3.99
2023-01-19T15:06:16.181Z,3.97
2023-01-19T15:08:45.010Z,3.96
2023-01-19T15:11:26.727Z,3.99
2023-01-19T15:13:55.226Z,4.03
2023-01-19T15:16:23.255Z,4.08
2023-01-19T15:18:49.838Z,4.08
2023-01-19T15:21:23.279Z,4.07
2023-01-19T15:23:50.382Z,4.03
2023-01-19T15:26:23.132Z,3.99
2023-01-19T15:28:50.625Z,3.97
2023-01-19T15:31:19.812Z,3.93
2023-01-19T15:33:46.956Z,3.90
2023-01-19T15:36:17.841Z,3.91
2023-01-19T15:38:44.797Z,3.91
2023-01-19T15:41:14.004Z,3.92
2023-01-19T15:43:40.691Z,3.88
2023-01-19T15:46:07.873Z,3.88
2023-01-19T15:48:34.692Z,3.89
2023-01-19T15:51:01.271Z,3.89
2023-01-19T15:53:27.876Z,3.88
2023-01-19T15:55:56.895Z,3.87
2023-01-19T15:58:24.333Z,3.85
2023-01-19T16:00:55.836Z,3.83
2023-01-19T16:03:24.635Z,3.80
2023-01-19T16:05:51.575Z,3.82
2023-01-19T16:08:18.352Z,3.78
2023-01-19T16:10:44.959Z,3.80
2023-01-19T16:13:11.922Z,3.82
2023-01-19T16:15:40.082Z,3.85
2023-01-19T16:18:06.717Z,3.86
2023-01-19T16:20:33.332Z,3.88
2023-01-19T16:23:13.819Z,3.89
2023-01-19T16:25:41.348Z,3.91
2023-01-19T16:28:08.425Z,3.92
2023-01-19T16:30:35.298Z,3.93
2023-01-19T16:33:01.977Z,3.92
2023-01-19T16:35:28.624Z,3.90
2023-01-19T16:37:55.208Z,3.88
2023-01-19T16:40:21.936Z,3.87
2023-01-19T16:42:48.580Z,3.84
2023-01-19T16:45:15.211Z,3.82
2023-01-19T16:47:41.873Z,3.79
2023-01-19T16:50:11.903Z,3.79
2023-01-19T16:52:38.819Z,3.80
2023-01-19T16:55:09.417Z,3.83
2023-01-19T16:57:38.886Z,3.86
2023-01-19T17:00:09.381Z,3.91
2023-01-19T17:02:36.404Z,3.92
2023-01-19T17:05:03.025Z,3.97
2023-01-19T17:07:29.626Z,3.99
2023-01-19T17:09:56.261Z,4.02
2023-01-19T17:12:22.890Z,4.03
2023-01-19T17:14:49.505Z,4.04
2023-01-19T17:17:16.061Z,4.05
2023-01-19T17:19:42.843Z,4.07
2023-01-19T17:22:09.382Z,4.10
2023-01-19T17:24:35.959Z,4.11
2023-01-19T17:27:02.539Z,4.13
2023-01-19T17:29:29.173Z,4.12
2023-01-19T17:31:55.722Z,4.11
2023-01-19T17:34:22.309Z,4.12
2023-01-19T17:36:51.233Z,4.11
2023-01-19T17:39:18.626Z,4.11
2023-01-19T17:41:45.286Z,4.10
2023-01-19T17:44:12.059Z,4.11
2023-01-19T17:46:38.868Z,4.08
2023-01-19T17:49:07.395Z,4.08
2023-01-19T17:51:34.696Z,4.06
2023-01-19T17:54:01.341Z,4.07
2023-01-19T17:56:30.437Z,4.04
2023-01-19T17:58:58.057Z,4.04
2023-01-19T18:01:27.326Z,4.03
2023-01-19T18:03:54.264Z,4.03
2023-01-19T18:06:21.683Z,4.02
2023-01-19T18:08:49.537Z,4.04
2023-01-19T18:11:17.958Z,4.06
2023-01-19T18:13:45.842Z,4.07
2023-01-19T18:16:34.503Z,4.08
2023-01-19T18:19:01.197Z,4.10
2023-01-19T18:21:28.872Z,4.09
2023-01-19T18:24:01.803Z,4.10
2023-01-19T18:26:28.774Z,4.10
2023-01-19T18:28:56.821Z,4.10
2023-01-19T18:31:24.680Z,4.11
2023-01-19T18:33:51.260Z,4.10
2023-01-19T18:36:18.211Z,4.10
2023-01-19T18:38:45.464Z,4.12
2023-01-19T18:41:15.008Z,4.13
2023-01-19T18:43:41.964Z,4.12
2023-01-19T18:46:09.605Z,4.07
2023-01-19T18:48:37.720Z,3.99
2023-01-19T18:51:09.520Z,3.85
2023-01-19T18:53:36.393Z,3.77
2023-01-19T18:56:03.627Z,3.72
2023-01-19T18:58:31.791Z,3.66
2023-01-19T19:01:00.123Z,3.61
2023-01-19T19:03:27.164Z,3.58
2023-01-19T19:05:53.827Z,3.58
2023-01-19T19:08:20.470Z,3.60
2023-01-19T19:10:47.109Z,3.59
2023-01-19T19:13:17.726Z,3.53
2023-01-19T19:15:44.513Z,3.52
2023-01-19T19:18:14.196Z,3.51
2023-01-19T19:20:44.425Z,3.52
2023-01-19T19:23:11.940Z,3.49
2023-01-19T19:25:38.795Z,3.48
2023-01-19T19:28:05.805Z,3.49
2023-01-19T19:30:34.624Z,3.50
2023-01-19T19:33:01.340Z,3.52
2023-01-19T19:35:27.965Z,3.54
2023-01-19T19:37:57.565Z,3.54
2023-01-19T19:40:28.495Z,3.52
2023-01-19T19:42:57.591Z,3.54
2023-01-19T19:45:25.311Z,3.55
2023-01-19T19:47:51.874Z,3.54
2023-01-19T19:50:18.636Z,3.50
2023-01-19T19:52:45.325Z,3.46
2023-01-19T19:55:12.715Z,3.43
2023-01-19T19:57:39.469Z,3.39
2023-01-19T20:00:06.756Z,3.32
2023-01-19T20:02:33.350Z,3.28
2023-01-19T20:05:00.165Z,3.22
2023-01-19T20:07:26.769Z,3.19
2023-01-19T20:09:55.092Z,3.17
2023-01-19T20:12:22.196Z,3.13
2023-01-19T20:14:48.877Z,3.10
2023-01-19T20:17:15.644Z,3.11
2023-01-19T20:19:43.852Z,3.12
2023-01-19T20:22:10.395Z,3.17
2023-01-19T20:24:37.053Z,3.19
2023-01-19T20:27:03.925Z,3.22
2023-01-19T20:29:30.685Z,3.23
2023-01-19T20:31:57.244Z,3.23
2023-01-19T20:34:29.102Z,3.22
2023-01-19T20:36:56.578Z,3.24
2023-01-19T20:39:24.551Z,3.25
2023-01-19T20:41:52.696Z,3.26
2023-01-19T20:44:22.365Z,3.23
2023-01-19T20:46:49.851Z,3.20
2023-01-19T20:49:16.737Z,3.20
2023-01-19T20:51:45.277Z,3.19
2023-01-19T20:54:13.467Z,3.17
2023-01-19T20:56:41.767Z,3.16
2023-01-19T20:59:10.323Z,3.16
2023-01-19T21:01:37.298Z,3.17
2023-01-19T21:04:04.132Z,3.18
2023-01-19T21:06:30.718Z,3.16
2023-01-19T21:08:57.683Z,3.14
2023-01-19T21:11:25.047Z,3.12
2023-01-19T21:13:55.691Z,3.12
2023-01-19T21:16:24.397Z,3.11
2023-01-19T21:18:51.304Z,3.10
2023-01-19T21:21:29.816Z,3.11
2023-01-19T21:23:58.237Z,3.10
2023-01-19T21:26:24.866Z,3.10
2023-01-19T21:28:51.580Z,3.10
2023-01-19T21:31:18.421Z,3.08
2023-01-19T21:33:45.178Z,3.05
2023-01-19T21:36:11.864Z,3.00
2023-01-19T21:38:39.027Z,2.96
2023-01-19T21:41:12.003Z,2.91
2023-01-19T21:43:41.784Z,2.88
2023-01-19T21:46:14.379Z,2.83
2023-01-19T21:48:42.192Z,2.82
2023-01-19T21:51:09.115Z,2.81
2023-01-19T21:53:35.733Z,2.81
2023-01-19T21:56:02.368Z,2.78
2023-01-19T21:58:28.964Z,2.77
2023-01-19T22:01:00.616Z,2.76
2023-01-19T22:03:28.496Z,2.77
2023-01-19T22:05:58.447Z,2.75
2023-01-19T22:08:25.136Z,2.73
2023-01-19T22:10:51.747Z,2.71
2023-01-19T22:13:18.461Z,2.71
2023-01-19T22:15:45.031Z,2.70
2023-01-19T22:18:11.663Z,2.72
2023-01-19T22:20:38.328Z,2.73
2023-01-19T22:23:04.946Z,2.75
2023-01-19T22:25:33.076Z,2.77
2023-01-19T22:27:59.729Z,2.77
2023-01-19T22:30:26.593Z,2.77
2023-01-19T22:32:53.482Z,2.77
2023-01-19T22:35:21.267Z,2.77
2023-01-19T22:37:47.967Z,2.74
2023-01-19T22:40:14.599Z,2.74
2023-01-19T22:42:45.284Z,2.71
2023-01-19T22:45:12.107Z,2.70
2023-01-19T22:47:38.909Z,2.66
2023-01-19T22:50:06.010Z,2.63
2023-01-19T22:52:32.614Z,2.60
2023-01-19T22:55:00.032Z,2.55
2023-01-19T22:57:26.583Z,2.49
2023-01-19T22:59:53.165Z,2.42
2023-01-19T23:02:20.895Z,2.36
2023-01-19T23:04:47.732Z,2.27
2023-01-19T23:07:14.435Z,2.21
2023-01-19T23:09:41.064Z,2.12
2023-01-19T23:12:07.708Z,2.07
2023-01-19T23:14:34.716Z,2.01
2023-01-19T23:17:01.306Z,1.97
2023-01-19T23:19:27.846Z,1.93
2023-01-19T23:21:54.418Z,1.90
2023-01-19T23:24:21.057Z,1.87
2023-01-19T23:26:49.591Z,1.88
2023-01-19T23:29:16.225Z,1.85
2023-01-19T23:31:46.442Z,1.84
2023-01-19T23:34:13.654Z,1.80
2023-01-19T23:36:41.837Z,1.79
2023-01-19T23:39:20.323Z,1.75
2023-01-19T23:41:47.579Z,1.76
2023-01-19T23:44:14.726Z,1.76
2023-01-19T23:46:41.273Z,1.78
2023-01-19T23:49:07.954Z,1.81
2023-01-19T23:51:34.914Z,1.81
2023-01-19T23:54:01.616Z,1.82
2023-01-19T23:56:31.808Z,1.83
2023-01-19T23:59:04.667Z,1.81
